createdAt,value
2022-09-06T00:02:54.445Z,0.60
2022-09-06T00:05:56.200Z,0.55
2022-09-06T00:08:59.701Z,0.47
2022-09-06T00:12:01.427Z,0.70
2022-09-06T00:15:03.391Z,0.50
2022-09-06T00:18:07.015Z,0.82
2022-09-06T00:21:15.658Z,0.70
2022-09-06T00:24:18.705Z,0.50
2022-09-06T00:27:20.405Z,0.70
2022-09-06T00:30:22.517Z,0.60
2022-09-06T00:33:24.812Z,0.63
2022-09-06T00:36:26.519Z,0.47
2022-09-06T00:39:29.629Z,0.60
2022-09-06T00:42:31.417Z,0.60
2022-09-06T00:45:33.443Z,0.65
2022-09-06T00:48:37.294Z,0.60
2022-09-06T00:51:39.905Z,0.50
2022-09-06T00:54:43.828Z,0.63
2022-09-06T00:57:46.558Z,0.40
2022-09-06T01:00:48.216Z,0.60
2022-09-06T01:03:49.937Z,0.52
2022-09-06T01:07:02.545Z,0.75
2022-09-06T01:10:23.901Z,0.60
2022-09-06T01:13:34.654Z,0.40
2022-09-06T01:16:43.547Z,0.40
2022-09-06T01:20:13.438Z,0.65
2022-09-06T01:23:52.989Z,0.60
2022-09-06T01:27:34.369Z,0.52
2022-09-06T01:30:44.578Z,0.60
2022-09-06T01:33:51.901Z,0.63
2022-09-06T01:37:13.458Z,0.60
2022-09-06T01:40:15.205Z,0.43
2022-09-06T01:43:23.902Z,0.70
2022-09-06T01:46:33.405Z,0.73
2022-09-06T01:49:48.614Z,0.65
2022-09-06T01:53:02.435Z,0.90
2022-09-06T01:56:11.328Z,1.00
2022-09-06T01:59:33.532Z,0.90
2022-09-06T02:02:50.384Z,0.80
2022-09-06T02:05:55.618Z,0.75
2022-09-06T02:09:03.662Z,0.98
2022-09-06T02:12:06.924Z,0.82
2022-09-06T02:15:13.432Z,0.95
2022-09-06T02:18:19.945Z,0.80
2022-09-06T02:21:32.177Z,0.90
2022-09-06T02:24:38.739Z,0.60
2022-09-06T02:27:41.383Z,0.82
2022-09-06T02:30:49.049Z,0.57
2022-09-06T02:33:52.344Z,0.70
2022-09-06T02:36:54.705Z,0.70
2022-09-06T02:39:56.638Z,0.80
2022-09-06T02:42:58.484Z,0.93
2022-09-06T02:46:00.271Z,0.60
2022-09-06T02:49:03.770Z,0.60
2022-09-06T02:52:05.646Z,0.80
2022-09-06T02:55:08.097Z,0.55
2022-09-06T02:58:11.815Z,0.57
2022-09-06T03:01:13.814Z,0.65
2022-09-06T03:04:16.954Z,0.70
2022-09-06T03:07:18.738Z,0.80
2022-09-06T03:10:20.937Z,0.60
2022-09-06T03:13:23.606Z,0.60
2022-09-06T03:16:25.397Z,0.70
2022-09-06T03:19:28.410Z,0.80
2022-09-06T03:22:30.162Z,0.80
2022-09-06T03:25:31.925Z,0.70
2022-09-06T03:28:33.902Z,0.73
2022-09-06T03:31:35.590Z,0.50
2022-09-06T03:34:38.611Z,0.47
2022-09-06T03:37:40.338Z,0.60
2022-09-06T03:40:44.588Z,0.40
2022-09-06T03:43:46.362Z,0.80
2022-09-06T03:46:48.129Z,0.55
2022-09-06T03:49:51.490Z,0.60
2022-09-06T03:52:53.215Z,0.50
2022-09-06T03:55:57.541Z,0.47
2022-09-06T04:02:01.090Z,0.60
2022-09-06T04:05:04.706Z,0.40
2022-09-06T04:08:06.736Z,0.60
2022-09-06T04:11:08.785Z,0.65
2022-09-06T04:14:10.457Z,0.55
2022-09-06T04:17:12.517Z,0.43
2022-09-06T04:20:16.378Z,0.57
2022-09-06T04:23:19.504Z,0.50
2022-09-06T04:26:21.243Z,0.52
2022-09-06T04:29:23.101Z,0.60
2022-09-06T04:32:24.792Z,0.60
2022-09-06T04:35:27.808Z,0.50
2022-09-06T04:38:34.593Z,0.60
2022-09-06T04:41:36.391Z,0.68
2022-09-06T04:44:38.135Z,0.60
2022-09-06T04:47:40.054Z,0.60
2022-09-06T04:50:43.948Z,0.85
2022-09-06T04:53:46.324Z,0.60
2022-09-06T04:56:48.114Z,0.80
2022-09-06T04:59:49.840Z,0.57
2022-09-06T05:02:51.545Z,0.60
2022-09-06T05:06:04.001Z,0.90
2022-09-06T05:09:06.007Z,0.80
2022-09-06T05:12:07.917Z,0.82
2022-09-06T05:15:10.131Z,0.57
2022-09-06T05:18:15.554Z,0.80
2022-09-06T05:21:19.261Z,0.68
2022-09-06T05:24:21.074Z,0.57
2022-09-06T05:27:22.771Z,0.90
2022-09-06T05:30:24.634Z,0.70
2022-09-06T05:33:26.321Z,0.90
2022-09-06T05:36:30.568Z,0.93
2022-09-06T05:42:34.063Z,0.90
2022-09-06T05:45:35.914Z,0.60
2022-09-06T05:48:38.065Z,0.60
2022-09-06T05:51:41.532Z,0.60
2022-09-06T05:54:43.236Z,0.73
2022-09-06T05:57:44.925Z,0.65
2022-09-06T06:00:46.950Z,0.60
2022-09-06T06:03:53.906Z,0.80
2022-09-06T06:06:57.050Z,0.73
2022-09-06T06:09:58.825Z,1.10
2022-09-06T06:13:00.571Z,0.90
2022-09-06T06:16:03.354Z,1.00
2022-09-06T06:19:05.384Z,1.35
2022-09-06T06:22:08.527Z,1.42
2022-09-06T06:25:12.548Z,1.42
2022-09-06T06:28:14.463Z,1.67
2022-09-06T06:31:16.573Z,1.40
2022-09-06T06:34:21.765Z,1.40
2022-09-06T06:37:24.870Z,1.98
2022-09-06T06:40:26.588Z,1.65
2022-09-06T06:43:28.746Z,1.55
2022-09-06T06:46:32.224Z,1.65
2022-09-06T06:49:34.011Z,1.55
2022-09-06T06:52:37.137Z,1.52
2022-09-06T06:55:39.167Z,1.55
2022-09-06T06:58:41.218Z,1.60
2022-09-06T07:01:43.139Z,1.98
2022-09-06T07:04:44.964Z,1.75
2022-09-06T07:07:48.071Z,1.98
2022-09-06T07:10:49.832Z,1.80
2022-09-06T07:13:51.713Z,1.40
2022-09-06T07:16:58.190Z,1.50
2022-09-06T07:20:15.929Z,1.60
2022-09-06T07:26:41.831Z,1.92
2022-09-06T07:29:43.698Z,1.90
2022-09-06T07:32:45.479Z,1.63
2022-09-06T07:35:58.122Z,1.77
2022-09-06T07:39:01.480Z,2.00
2022-09-06T07:42:03.322Z,1.63
2022-09-06T07:45:05.878Z,1.52
2022-09-06T07:48:07.632Z,1.65
2022-09-06T07:51:11.345Z,1.70
2022-09-06T07:54:31.157Z,1.65
2022-09-06T07:57:33.239Z,1.50
2022-09-06T08:00:35.183Z,1.38
2022-09-06T08:03:36.947Z,1.58
2022-09-06T08:10:04.350Z,1.70
2022-09-06T08:13:06.089Z,1.80
2022-09-06T08:16:09.703Z,1.33
2022-09-06T08:19:12.385Z,1.40
2022-09-06T08:22:14.105Z,1.33
2022-09-06T08:25:17.274Z,1.60
2022-09-06T08:28:19.002Z,1.45
2022-09-06T08:31:21.038Z,1.50
2022-09-06T08:34:22.794Z,1.65
2022-09-06T08:37:25.270Z,1.80
2022-09-06T08:40:28.437Z,1.65
2022-09-06T08:43:30.110Z,1.75
2022-09-06T08:46:37.517Z,1.50
2022-09-06T08:49:42.069Z,1.33
2022-09-06T08:53:15.563Z,1.50
2022-09-06T08:56:23.219Z,1.60
2022-09-06T08:59:25.141Z,1.40
2022-09-06T09:02:28.185Z,1.70
2022-09-06T09:05:32.947Z,1.27
2022-09-06T09:08:42.995Z,1.50
2022-09-06T09:11:49.977Z,1.70
2022-09-06T09:14:57.469Z,1.65
2022-09-06T09:18:00.107Z,1.50
2022-09-06T09:21:02.734Z,1.30
2022-09-06T09:24:06.958Z,1.17
2022-09-06T09:27:11.396Z,1.10
2022-09-06T09:33:38.610Z,1.35
2022-09-06T09:36:40.871Z,1.15
2022-09-06T09:39:43.099Z,1.10
2022-09-06T09:42:46.275Z,1.02
2022-09-06T09:46:08.676Z,1.20
2022-09-06T09:52:14.852Z,0.98
2022-09-06T09:55:23.371Z,0.98
2022-09-06T09:58:33.212Z,0.95
2022-09-06T10:01:36.652Z,1.17
2022-09-06T10:04:45.885Z,1.00
2022-09-06T10:07:50.151Z,1.10
2022-09-06T10:10:52.269Z,1.15
2022-09-06T10:14:10.755Z,0.98
2022-09-06T10:17:27.749Z,0.80
2022-09-06T10:20:35.780Z,0.98
2022-09-06T10:27:19.473Z,1.13
2022-09-06T10:30:22.605Z,1.02
2022-09-06T10:33:33.549Z,1.30
2022-09-06T10:36:38.450Z,0.80
2022-09-06T10:39:49.230Z,0.90
2022-09-06T10:42:55.232Z,0.90
2022-09-06T10:46:02.577Z,1.13
2022-09-06T10:49:08.310Z,1.10
2022-09-06T10:52:15.476Z,1.63
2022-09-06T10:55:19.425Z,1.23
2022-09-06T10:58:27.662Z,1.10
2022-09-06T11:01:38.188Z,0.90
2022-09-06T11:11:36.021Z,1.20
2022-09-06T11:14:39.412Z,0.63
2022-09-06T11:17:47.897Z,0.82
2022-09-06T11:21:03.262Z,1.42
2022-09-06T11:24:12.161Z,1.00
2022-09-06T11:27:22.982Z,1.00
2022-09-06T11:30:27.016Z,1.00
2022-09-06T11:36:36.643Z,0.88
2022-09-06T11:43:14.803Z,1.17
2022-09-06T11:46:53.044Z,1.00
2022-09-06T11:49:56.694Z,0.68
2022-09-06T11:53:12.772Z,0.85
2022-09-06T11:59:36.849Z,0.73
2022-09-06T12:02:40.796Z,1.15
2022-09-06T12:06:15.290Z,0.82
2022-09-06T12:12:40.688Z,0.80
2022-09-06T12:15:45.853Z,0.75
2022-09-06T12:19:01.589Z,0.85
2022-09-06T12:22:43.295Z,1.25
2022-09-06T12:25:57.858Z,0.82
2022-09-06T12:28:59.984Z,0.90
2022-09-06T12:32:04.596Z,1.00
2022-09-06T12:38:37.561Z,0.70
2022-09-06T12:41:43.528Z,0.90
2022-09-06T12:44:49.774Z,0.70
2022-09-06T12:48:04.478Z,0.75
2022-09-06T12:51:07.885Z,0.65
2022-09-06T12:54:20.433Z,0.85
2022-09-06T12:57:25.161Z,0.90
2022-09-06T13:00:34.221Z,0.70
2022-09-06T13:03:40.242Z,0.70
2022-09-06T13:06:45.700Z,0.60
2022-09-06T13:09:52.572Z,0.60
2022-09-06T13:12:57.154Z,0.93
2022-09-06T13:15:58.905Z,0.80
2022-09-06T13:19:12.619Z,0.90
2022-09-06T13:22:40.254Z,0.75
2022-09-06T13:25:47.724Z,0.75
2022-09-06T13:28:49.455Z,0.80
2022-09-06T13:31:52.623Z,1.00
2022-09-06T13:34:58.163Z,1.00
2022-09-06T13:38:22.792Z,0.90
2022-09-06T13:41:41.272Z,1.00
2022-09-06T13:44:43.739Z,0.95
2022-09-06T13:47:45.588Z,1.00
2022-09-06T13:50:47.316Z,1.00
2022-09-06T13:53:50.762Z,0.90
2022-09-06T13:56:52.868Z,0.90
2022-09-06T13:59:54.529Z,0.80
2022-09-06T14:02:56.666Z,0.95
2022-09-06T14:06:00.239Z,1.00
2022-09-06T14:09:07.239Z,0.95
2022-09-06T14:12:10.497Z,0.75
2022-09-06T14:15:13.322Z,0.68
2022-09-06T14:18:15.862Z,0.73
2022-09-06T14:21:17.686Z,0.70
2022-09-06T14:24:20.929Z,0.70
2022-09-06T14:27:23.134Z,0.50
2022-09-06T14:30:24.959Z,0.70
2022-09-06T14:33:26.689Z,0.63
2022-09-06T14:36:29.956Z,0.70
2022-09-06T14:39:33.211Z,0.70
2022-09-06T14:42:35.008Z,0.45
2022-09-06T14:45:37.184Z,0.70
2022-09-06T14:48:42.091Z,0.50
2022-09-06T14:51:45.906Z,0.50
2022-09-06T14:54:49.156Z,0.40
2022-09-06T14:57:51.026Z,0.52
2022-09-06T15:00:52.911Z,0.43
2022-09-06T15:03:57.531Z,0.60
2022-09-06T15:06:59.937Z,0.50
2022-09-06T15:10:03.727Z,0.60
2022-09-06T15:13:05.502Z,0.40
2022-09-06T15:16:09.215Z,0.60
2022-09-06T15:22:12.688Z,0.70
2022-09-06T15:25:16.216Z,0.57
2022-09-06T15:28:19.327Z,0.50
2022-09-06T15:31:21.730Z,0.63
2022-09-06T15:34:25.471Z,0.50
2022-09-06T15:37:27.327Z,0.50
2022-09-06T15:40:30.553Z,0.50
2022-09-06T15:43:32.848Z,0.80
2022-09-06T15:46:44.561Z,0.50
2022-09-06T15:49:46.390Z,0.50
2022-09-06T15:52:48.252Z,0.57
2022-09-06T15:55:57.972Z,0.52
2022-09-06T15:58:59.896Z,0.50
2022-09-06T16:02:01.829Z,0.68
2022-09-06T16:05:04.202Z,0.82
2022-09-06T16:08:06.008Z,0.80
2022-09-06T16:11:11.739Z,0.73
2022-09-06T16:14:15.763Z,0.60
2022-09-06T16:17:17.589Z,0.68
2022-09-06T16:20:19.382Z,0.95
2022-09-06T16:23:21.213Z,1.55
2022-09-06T16:26:25.763Z,0.60
2022-09-06T16:29:27.601Z,0.90
2022-09-06T16:32:29.349Z,0.50
2022-09-06T16:35:31.139Z,0.50
2022-09-06T16:38:33.665Z,0.70
2022-09-06T16:41:40.461Z,0.60
2022-09-06T16:44:42.510Z,0.70
2022-09-06T16:47:46.423Z,0.63
2022-09-06T16:53:50.404Z,0.73
2022-09-06T16:56:53.751Z,0.70
2022-09-06T16:59:55.600Z,0.70
2022-09-06T17:02:58.568Z,0.68
2022-09-06T17:06:00.407Z,0.52
2022-09-06T17:09:02.285Z,0.63
2022-09-06T17:12:05.881Z,0.57
2022-09-06T17:15:08.544Z,0.70
2022-09-06T17:18:11.859Z,0.70
2022-09-06T17:21:13.884Z,0.60
2022-09-06T17:24:15.921Z,0.80
2022-09-06T17:27:19.379Z,0.80
2022-09-06T17:30:21.304Z,0.60
2022-09-06T17:33:23.828Z,0.88
2022-09-06T17:36:27.617Z,0.60
2022-09-06T17:39:29.542Z,0.63
2022-09-06T17:42:32.912Z,0.60
2022-09-06T17:45:39.132Z,0.73
2022-09-06T17:48:41.069Z,0.60
2022-09-06T17:51:42.830Z,0.70
2022-09-06T17:54:46.597Z,0.40
2022-09-06T17:57:49.841Z,0.57
2022-09-06T18:00:51.817Z,0.60
2022-09-06T18:03:53.646Z,0.52
2022-09-06T18:06:55.559Z,0.60
2022-09-06T18:09:57.335Z,1.00
2022-09-06T18:13:00.489Z,0.40
2022-09-06T18:16:03.712Z,0.60
2022-09-06T18:19:07.609Z,0.50
2022-09-06T18:22:09.347Z,0.50
2022-09-06T18:25:11.111Z,0.60
2022-09-06T18:28:14.722Z,0.60
2022-09-06T18:31:18.136Z,0.40
2022-09-06T18:34:19.980Z,0.50
2022-09-06T18:37:22.153Z,0.60
2022-09-06T18:40:24.011Z,0.50
2022-09-06T18:43:30.625Z,0.50
2022-09-06T18:46:36.111Z,0.40
2022-09-06T18:49:43.293Z,0.50
2022-09-06T18:52:45.861Z,0.60
2022-09-06T18:55:50.961Z,0.60
2022-09-06T18:58:58.047Z,0.60
2022-09-06T19:01:59.923Z,0.40
2022-09-06T19:05:01.720Z,0.40
2022-09-06T19:08:04.711Z,0.43
2022-09-06T19:11:09.284Z,0.50
2022-09-06T19:14:12.901Z,0.32
2022-09-06T19:17:14.705Z,0.63
2022-09-06T19:20:16.974Z,0.60
2022-09-06T19:23:19.305Z,0.50
2022-09-06T19:26:22.432Z,0.60
2022-09-06T19:29:25.611Z,0.73
2022-09-06T19:32:27.919Z,0.50
2022-09-06T19:35:29.677Z,0.40
2022-09-06T19:38:52.573Z,0.45
2022-09-06T19:41:53.532Z,0.73
2022-09-06T19:44:56.626Z,0.52
2022-09-06T19:47:58.433Z,0.70
2022-09-06T19:51:01.121Z,0.50
2022-09-06T19:54:03.858Z,0.30
2022-09-06T19:57:06.198Z,0.60
2022-09-06T20:00:10.737Z,0.50
2022-09-06T20:03:14.202Z,0.50
2022-09-06T20:06:16.213Z,0.50
2022-09-06T20:09:18.068Z,0.40
2022-09-06T20:12:20.633Z,0.50
2022-09-06T20:15:23.783Z,0.50
2022-09-06T20:18:25.999Z,0.60
2022-09-06T20:21:28.075Z,0.47
2022-09-06T20:24:29.953Z,0.50
2022-09-06T20:27:31.742Z,0.40
2022-09-06T20:30:34.887Z,0.45
2022-09-06T20:33:37.273Z,0.40
2022-09-06T20:36:39.019Z,0.80
2022-09-06T20:39:40.937Z,0.50
2022-09-06T20:42:45.839Z,0.50
2022-09-06T20:45:50.188Z,0.50
2022-09-06T20:48:52.264Z,0.50
2022-09-06T20:51:54.061Z,0.40
2022-09-06T20:54:55.834Z,0.38
2022-09-06T20:57:57.596Z,0.30
2022-09-06T21:01:06.314Z,0.77
2022-09-06T21:04:10.780Z,0.30
2022-09-06T21:07:12.525Z,0.30
2022-09-06T21:10:14.741Z,0.35
2022-09-06T21:13:16.595Z,0.47
2022-09-06T21:16:24.220Z,0.30
2022-09-06T21:19:26.568Z,0.60
2022-09-06T21:22:28.342Z,0.20
2022-09-06T21:25:30.267Z,0.43
2022-09-06T21:28:34.473Z,0.40
2022-09-06T21:34:39.693Z,0.30
2022-09-06T21:37:41.432Z,0.30
2022-09-06T21:40:43.409Z,0.40
2022-09-06T21:43:46.118Z,0.30
2022-09-06T21:46:49.504Z,0.30
2022-09-06T21:49:51.676Z,0.32
2022-09-06T21:52:53.803Z,0.30
2022-09-06T21:56:00.140Z,0.20
2022-09-06T21:59:02.673Z,0.30
2022-09-06T22:02:06.428Z,0.47
2022-09-06T22:05:08.859Z,0.50
2022-09-06T22:08:10.635Z,0.50
2022-09-06T22:11:15.353Z,0.40
2022-09-06T22:14:17.163Z,0.50
2022-09-06T22:17:20.330Z,0.22
2022-09-06T22:20:22.766Z,0.60
2022-09-06T22:23:25.089Z,0.45
2022-09-06T22:26:28.580Z,0.45
2022-09-06T22:29:30.492Z,0.60
2022-09-06T22:32:33.772Z,0.63
2022-09-06T22:35:35.566Z,0.45
2022-09-06T22:38:37.600Z,0.63
2022-09-06T22:41:39.520Z,0.60
2022-09-06T22:44:41.217Z,0.50
2022-09-06T22:47:44.302Z,0.38
2022-09-06T22:50:46.127Z,0.55
2022-09-06T22:53:47.909Z,0.55
2022-09-06T22:56:49.849Z,0.40
2022-09-06T22:59:51.565Z,0.47
2022-09-06T23:02:54.767Z,0.40
2022-09-06T23:06:00.432Z,0.40
2022-09-06T23:09:02.194Z,0.50
2022-09-06T23:12:05.063Z,0.60
2022-09-06T23:15:07.652Z,0.50
2022-09-06T23:18:10.869Z,0.40
2022-09-06T23:21:14.626Z,0.43
2022-09-06T23:24:16.334Z,0.50
2022-09-06T23:27:18.216Z,0.50
2022-09-06T23:30:20.278Z,0.40
2022-09-06T23:33:23.445Z,0.40
2022-09-06T23:36:26.161Z,0.60
2022-09-06T23:39:28.497Z,0.50
2022-09-06T23:42:30.284Z,0.63
2022-09-06T23:45:31.959Z,0.70
2022-09-06T23:48:35.701Z,0.57
2022-09-06T23:51:37.560Z,0.80
2022-09-06T23:54:39.306Z,0.60
2022-09-06T23:57:41.068Z,0.70
